Time;durP1;ratioP1;P1;durP2;ratioP2;P2;SDS_P1;SDS_P2;PMS_P1;PMS_P2;Temp;Humidity;BMP_temperature;BMP_pressure;BME280_temperature;BME280_humidity;BME280_pressure;Samples;Min_cycle;Max_cycle;Signal;HPM_P1;HPM_P2
2022/06/27 00:01:13;;;;;;;7.70;4.28;;;;;;;17.91;100.00;101641.75;5080380;28;20061;-68
2022/06/27 00:03:38;;;;;;;4.70;4.25;;;;;;;17.92;100.00;101640.63;5065905;28;20031;-68
2022/06/27 00:06:10;;;;;;;4.45;3.75;;;;;;;17.91;100.00;101640.94;5068347;28;20125;-68
2022/06/27 00:08:35;;;;;;;7.38;4.13;;;;;;;17.97;100.00;101648.84;5068900;28;20020;-68
2022/06/27 00:11:12;;;;;;;8.38;4.00;;;;;;;17.97;100.00;101654.41;5068190;28;20086;-68
2022/06/27 00:13:38;;;;;;;7.47;3.97;;;;;;;17.90;100.00;101648.44;5069360;28;20032;-68
2022/06/27 00:16:10;;;;;;;4.45;3.92;;;;;;;17.90;100.00;101647.63;5047240;28;20482;-68
2022/06/27 00:18:36;;;;;;;5.85;4.03;;;;;;;17.90;100.00;101642.06;5047963;28;20035;-68
2022/06/27 00:21:01;;;;;;;5.22;4.15;;;;;;;17.90;100.00;101651.22;5066896;28;20040;-68
2022/06/27 00:23:26;;;;;;;5.38;4.45;;;;;;;17.90;100.00;101648.44;5063138;28;20035;-69
2022/06/27 00:25:52;;;;;;;7.78;4.65;;;;;;;17.90;100.00;101648.44;5050363;28;20060;-69
2022/06/27 00:28:17;;;;;;;6.50;4.22;;;;;;;17.96;100.00;101647.19;5064622;28;20030;-68
2022/06/27 00:30:43;;;;;;;5.82;3.88;;;;;;;17.98;100.00;101656.00;5063178;28;20158;-68
2022/06/27 00:33:11;;;;;;;7.47;4.45;;;;;;;17.99;100.00;101654.09;5061772;28;20093;-68
2022/06/27 00:35:37;;;;;;;7.20;4.40;;;;;;;17.92;100.00;101654.50;5050341;28;20035;-67
2022/06/27 00:38:02;;;;;;;5.63;3.72;;;;;;;17.89;100.00;101655.13;5065319;28;20032;-68
2022/06/27 00:40:28;;;;;;;5.93;4.28;;;;;;;17.85;100.00;101656.84;5083467;28;20824;-68
2022/06/27 00:42:53;;;;;;;5.13;3.95;;;;;;;17.82;100.00;101663.00;5066581;28;20139;-69
2022/06/27 00:45:19;;;;;;;5.75;4.45;;;;;;;17.86;100.00;101669.59;5046025;28;20129;-68
2022/06/27 00:47:44;;;;;;;7.30;4.43;;;;;;;17.88;100.00;101672.91;5081613;28;20035;-68
2022/06/27 00:50:13;;;;;;;6.70;4.38;;;;;;;17.91;100.00;101665.91;5064188;28;20034;-68
2022/06/27 00:52:39;;;;;;;6.38;4.80;;;;;;;17.90;100.00;101675.38;5066284;28;20028;-68
2022/06/27 00:55:10;;;;;;;6.78;3.95;;;;;;;17.89;100.00;101687.59;5084618;28;20497;-68
2022/06/27 00:57:36;;;;;;;9.00;4.22;;;;;;;17.86;100.00;101680.69;5065412;28;20020;-67
2022/06/27 01:00:04;;;;;;;8.40;4.72;;;;;;;17.87;100.00;101690.66;5082768;28;20071;-68
2022/06/27 01:02:29;;;;;;;6.60;4.82;;;;;;;17.84;100.00;101677.41;5061337;28;20488;-67
2022/06/27 01:04:54;;;;;;;7.25;3.97;;;;;;;17.83;100.00;101687.66;5066219;28;20458;-69
2022/06/27 01:07:20;;;;;;;7.20;4.40;;;;;;;17.84;100.00;101680.19;5065272;28;20020;-67
2022/06/27 01:09:45;;;;;;;6.53;5.07;;;;;;;17.85;100.00;101681.00;5084457;28;20051;-68
2022/06/27 01:12:16;;;;;;;7.90;4.82;;;;;;;17.83;100.00;101678.53;5067043;28;20028;-69
2022/06/27 01:14:42;;;;;;;5.57;4.78;;;;;;;17.81;100.00;101673.28;5066411;28;20419;-67
2022/06/27 01:17:17;;;;;;;8.57;5.32;;;;;;;17.74;100.00;101678.44;5062557;28;20039;-69
2022/06/27 01:19:43;;;;;;;7.55;5.05;;;;;;;17.77;100.00;101677.00;5083759;28;20078;-69
2022/06/27 01:22:09;;;;;;;8.75;5.72;;;;;;;17.80;100.00;101668.06;5048685;28;20479;-69
2022/06/27 01:24:35;;;;;;;7.55;5.03;;;;;;;17.83;100.00;101670.22;5047353;28;20039;-68
2022/06/27 01:27:01;;;;;;;7.18;5.30;;;;;;;17.85;100.00;101670.72;5031087;28;20028;-69
2022/06/27 01:29:27;;;;;;;6.60;5.00;;;;;;;17.86;100.00;101663.22;5081439;28;20028;-68
2022/06/27 01:31:52;;;;;;;8.70;5.55;;;;;;;17.80;100.00;101662.50;5062156;28;20047;-68
2022/06/27 01:34:18;;;;;;;8.20;6.07;;;;;;;17.76;100.00;101665.09;5048582;28;20028;-68
2022/06/27 01:36:45;;;;;;;6.57;5.88;;;;;;;17.83;100.00;101665.47;5065447;28;20637;-68
2022/06/27 01:39:22;;;;;;;8.52;5.20;;;;;;;17.83;100.00;101664.66;5066521;28;20040;-68
2022/06/27 01:41:53;;;;;;;7.55;4.85;;;;;;;17.85;100.00;101667.94;5083633;28;20028;-68
2022/06/27 01:44:20;;;;;;;9.82;5.97;;;;;;;17.87;100.00;101660.16;5061529;28;20032;-69
2022/06/27 01:46:49;;;;;;;6.65;5.60;;;;;;;17.90;100.00;101664.25;5079631;28;20461;-68
2022/06/27 01:49:17;;;;;;;7.30;5.97;;;;;;;17.83;100.00;101667.44;5065676;28;20027;-68
2022/06/27 01:51:48;;;;;;;9.45;6.55;;;;;;;17.82;100.00;101666.63;5082441;28;20024;-67
2022/06/27 01:54:21;;;;;;;8.65;6.85;;;;;;;17.83;100.00;101659.94;5063990;28;20031;-69
2022/06/27 01:56:49;;;;;;;9.77;7.00;;;;;;;17.84;100.00;101655.22;5065273;28;20080;-69
2022/06/27 01:59:27;;;;;;;9.07;6.75;;;;;;;17.81;100.00;101651.09;5059959;28;20393;-68
2022/06/27 02:01:53;;;;;;;9.00;7.25;;;;;;;17.86;100.00;101646.59;5078124;28;20031;-68
2022/06/27 02:04:19;;;;;;;9.10;7.18;;;;;;;17.92;100.00;101656.44;5082347;28;20032;-68
2022/06/27 02:06:45;;;;;;;10.63;7.65;;;;;;;17.92;100.00;101646.19;5062953;28;20024;-69
2022/06/27 02:09:13;;;;;;;7.47;6.70;;;;;;;17.91;100.00;101638.19;5064086;28;20390;-68
2022/06/27 02:11:40;;;;;;;10.27;8.70;;;;;;;17.91;100.00;101641.75;5064130;28;20035;-68
2022/06/27 02:14:06;;;;;;;8.88;7.32;;;;;;;17.91;100.00;101644.53;5080905;28;20044;-68
2022/06/27 02:16:35;;;;;;;10.23;8.15;;;;;;;17.92;100.00;101642.56;5079164;28;20028;-68
2022/06/27 02:19:00;;;;;;;9.75;8.05;;;;;;;17.85;100.00;101639.38;5082370;28;20027;-68
2022/06/27 02:21:29;;;;;;;9.80;8.80;;;;;;;17.82;100.00;101629.72;5063399;28;20493;-68
2022/06/27 02:23:58;;;;;;;12.25;10.45;;;;;;;17.79;100.00;101627.56;5065657;28;20285;-68
2022/06/27 02:26:30;;;;;;;11.80;9.80;;;;;;;17.79;100.00;101624.81;5082122;28;20339;-68
2022/06/27 02:29:05;;;;;;;11.98;9.45;;;;;;;17.68;100.00;101626.19;5083707;28;20028;-69
2022/06/27 02:31:45;;;;;;;12.80;10.20;;;;;;;17.59;100.00;101629.69;5079894;28;20107;-68
2022/06/27 02:34:11;;;;;;;10.52;9.43;;;;;;;17.60;100.00;101636.06;5064816;28;20508;-69
2022/06/27 02:36:41;;;;;;;12.82;10.13;;;;;;;17.61;100.00;101635.75;5064890;28;20040;-69
2022/06/27 02:39:12;;;;;;;13.95;10.25;;;;;;;17.60;100.00;101639.63;5082709;28;20020;-69
2022/06/27 02:41:40;;;;;;;10.45;9.50;;;;;;;17.58;100.00;101635.56;5082523;28;20028;-69
2022/06/27 02:44:11;;;;;;;12.30;10.20;;;;;;;17.54;100.00;101634.50;5081005;28;20358;-69
2022/06/27 02:46:38;;;;;;;12.73;11.52;;;;;;;17.48;100.00;101628.28;5059766;28;20466;-69
2022/06/27 02:49:04;;;;;;;13.43;12.02;;;;;;;17.46;100.00;101624.97;5066258;28;20046;-69
2022/06/27 02:51:59;;;;;;;14.50;11.30;;;;;;;17.42;100.00;101627.53;5081273;28;20024;-68
2022/06/27 02:54:42;;;;;;;12.77;11.15;;;;;;;17.37;100.00;101624.06;5081626;28;20146;-67
2022/06/27 02:57:18;;;;;;;15.20;12.05;;;;;;;17.39;100.00;101619.03;5082170;28;20024;-68
2022/06/27 02:59:45;;;;;;;13.35;11.95;;;;;;;17.39;100.00;101619.03;5080519;28;20035;-68
2022/06/27 03:02:13;;;;;;;14.80;11.98;;;;;;;17.41;100.00;101619.53;5078155;28;20050;-69
2022/06/27 03:04:38;;;;;;;14.65;12.25;;;;;;;17.38;100.00;101614.59;5080761;28;20096;-66
2022/06/27 03:07:04;;;;;;;14.45;12.82;;;;;;;17.37;100.00;101611.03;5082065;28;20040;-69
2022/06/27 03:09:29;;;;;;;14.00;11.35;;;;;;;17.29;100.00;101606.22;5061838;28;20317;-69
2022/06/27 03:11:55;;;;;;;13.80;11.85;;;;;;;17.15;100.00;101602.63;5081455;28;20023;-69
2022/06/27 03:14:27;;;;;;;13.50;12.13;;;;;;;17.11;100.00;101607.97;5049258;28;20799;-69
2022/06/27 03:16:52;;;;;;;13.65;12.02;;;;;;;17.08;100.00;101608.56;5080526;28;20509;-70
2022/06/27 03:19:18;;;;;;;13.35;11.90;;;;;;;17.05;100.00;101609.19;5051476;28;20028;-69
2022/06/27 03:21:43;;;;;;;14.38;12.57;;;;;;;16.95;100.00;101612.16;5085955;28;20302;-69
2022/06/27 03:24:09;;;;;;;14.63;13.10;;;;;;;16.93;100.00;101609.69;5068316;28;20371;-69
2022/06/27 03:26:34;;;;;;;16.98;13.20;;;;;;;16.92;100.00;101601.69;5066836;28;20032;-69
2022/06/27 03:29:06;;;;;;;15.13;13.13;;;;;;;16.85;100.00;101597.38;5065432;28;20168;-69
2022/06/27 03:31:36;;;;;;;15.50;12.85;;;;;;;16.81;100.00;101593.56;5063318;28;20024;-68
2022/06/27 03:34:02;;;;;;;16.27;13.00;;;;;;;16.79;100.00;101597.75;5066959;28;20329;-69
2022/06/27 03:36:30;;;;;;;14.65;13.07;;;;;;;16.75;100.00;101600.31;5066907;28;20132;-68
2022/06/27 03:38:56;;;;;;;15.15;13.35;;;;;;;16.77;100.00;101597.25;5086078;28;20093;-68
2022/06/27 03:41:22;;;;;;;17.42;13.68;;;;;;;16.72;100.00;101606.47;5087184;28;20024;-67
2022/06/27 03:43:47;;;;;;;14.80;12.88;;;;;;;16.68;100.00;101605.44;5085093;28;20697;-68
2022/06/27 03:46:12;;;;;;;15.55;12.43;;;;;;;16.73;100.00;101602.56;5045833;28;20032;-68
2022/06/27 03:51:22;;;;;;;15.65;13.35;;;;;;;16.86;100.00;101607.34;5071607;28;20026;-68
2022/06/27 03:53:47;;;;;;;15.98;13.90;;;;;;;16.89;100.00;101603.97;5085470;28;20024;-69
2022/06/27 03:56:12;;;;;;;16.38;13.68;;;;;;;16.85;100.00;101591.84;5067165;28;20047;-68
2022/06/27 03:58:38;;;;;;;13.98;12.60;;;;;;;16.88;100.00;101587.66;5082632;28;20016;-69
2022/06/27 04:01:03;;;;;;;15.00;13.02;;;;;;;16.86;100.00;101587.13;5081726;28;20040;-68
2022/06/27 04:03:32;;;;;;;14.07;12.50;;;;;;;16.90;100.00;101590.91;5065412;28;20067;-70
2022/06/27 04:05:58;;;;;;;14.38;12.45;;;;;;;16.92;100.00;101590.63;5051574;28;20032;-69
2022/06/27 04:08:23;;;;;;;16.52;12.90;;;;;;;16.92;100.00;101588.66;5069270;28;20368;-70
2022/06/27 04:10:49;;;;;;;14.45;12.38;;;;;;;16.92;100.00;101596.97;5033176;28;20396;-69
2022/06/27 04:13:14;;;;;;;15.10;12.85;;;;;;;16.92;100.00;101596.16;5085725;28;20491;-68
2022/06/27 04:15:40;;;;;;;13.95;12.45;;;;;;;16.96;100.00;101599.97;5063373;28;20062;-68
2022/06/27 04:18:05;;;;;;;15.25;12.32;;;;;;;16.96;100.00;101605.50;5088931;28;20040;-68
2022/06/27 04:20:31;;;;;;;15.40;13.40;;;;;;;17.00;100.00;101600.97;5066799;28;20020;-68
2022/06/27 04:22:57;;;;;;;14.80;12.70;;;;;;;17.00;100.00;101601.78;5034650;28;20281;-68
2022/06/27 04:25:22;;;;;;;14.77;12.93;;;;;;;16.96;100.00;101598.00;5085787;28;20382;-69
2022/06/27 04:27:47;;;;;;;13.75;12.27;;;;;;;16.92;100.00;101596.97;5049540;28;20226;-69
2022/06/27 04:30:16;;;;;;;13.32;12.00;;;;;;;16.92;100.00;101594.19;5063092;28;20032;-69
2022/06/27 04:32:44;;;;;;;15.48;13.80;;;;;;;17.00;100.00;101598.22;5047347;28;20032;-68
2022/06/27 04:35:10;;;;;;;16.08;13.35;;;;;;;17.04;100.00;101590.94;5085233;28;20503;-68
2022/06/27 04:37:36;;;;;;;14.40;13.00;;;;;;;17.14;100.00;101565.78;5062129;28;20041;-68
2022/06/27 04:40:02;;;;;;;14.27;12.77;;;;;;;17.18;100.00;101564.03;5048317;28;20043;-68
2022/06/27 04:42:27;;;;;;;14.50;12.98;;;;;;;17.21;100.00;101565.38;5083275;28;20035;-69
2022/06/27 04:44:53;;;;;;;14.63;12.90;;;;;;;17.32;100.00;101549.34;5044756;28;20434;-68
2022/06/27 04:47:19;;;;;;;14.63;12.70;;;;;;;17.39;100.00;101538.66;5080910;28;20054;-69
2022/06/27 04:49:44;;;;;;;16.33;13.23;;;;;;;17.37;100.00;101529.84;5063388;28;20443;-70
2022/06/27 04:52:12;;;;;;;16.63;13.07;;;;;;;17.34;100.00;101528.50;5082074;28;20443;-68
2022/06/27 04:54:41;;;;;;;14.38;12.85;;;;;;;17.32;100.00;101528.00;5063637;28;20023;-68
2022/06/27 04:57:06;;;;;;;15.52;12.35;;;;;;;17.29;100.00;101534.16;5064721;28;20024;-69
2022/06/27 04:59:38;;;;;;;13.82;12.32;;;;;;;17.34;100.00;101553.44;5045191;28;20039;-68
2022/06/27 05:02:04;;;;;;;15.60;13.13;;;;;;;17.27;100.00;101551.09;5062448;28;20031;-70
2022/06/27 05:04:30;;;;;;;13.93;12.32;;;;;;;17.27;100.00;101548.31;5063975;28;20066;-69
2022/06/27 05:06:55;;;;;;;15.30;12.82;;;;;;;17.21;100.00;101545.97;5081209;28;20476;-69
2022/06/27 05:09:21;;;;;;;13.63;12.23;;;;;;;17.08;100.00;101545.66;5064568;28;20061;-69
2022/06/27 05:11:48;;;;;;;13.73;12.30;;;;;;;17.09;100.00;101552.06;5063200;28;20028;-71
2022/06/27 05:14:14;;;;;;;16.77;13.05;;;;;;;17.05;100.00;101551.00;5063180;28;20032;-70
2022/06/27 05:16:42;;;;;;;13.85;12.45;;;;;;;17.07;100.00;101551.53;5027220;28;20047;-69
2022/06/27 05:19:09;;;;;;;14.50;12.93;;;;;;;17.21;100.00;101560.63;5063910;28;20043;-69
2022/06/27 05:21:44;;;;;;;13.60;12.20;;;;;;;17.33;100.00;101570.38;5083974;28;20107;-69
2022/06/27 05:24:11;;;;;;;13.18;11.82;;;;;;;17.37;100.00;101571.41;5065827;28;20035;-68
2022/06/27 05:26:43;;;;;;;15.30;12.88;;;;;;;17.38;100.00;101573.88;5064746;28;20439;-69
2022/06/27 05:29:09;;;;;;;14.43;12.93;;;;;;;17.38;100.00;101567.50;5046955;28;20027;-69
2022/06/27 05:31:43;;;;;;;18.20;12.63;;;;;;;17.37;100.00;101565.88;5061495;28;20035;-70
2022/06/27 05:34:09;;;;;;;14.05;12.65;;;;;;;17.37;100.00;101571.41;5048619;28;20039;-69
2022/06/27 05:36:34;;;;;;;13.88;12.43;;;;;;;17.41;100.00;101566.88;5065789;28;20036;-68
2022/06/27 05:39:00;;;;;;;13.90;12.38;;;;;;;17.43;100.00;101567.38;5048402;28;20227;-69
2022/06/27 05:41:32;;;;;;;14.27;12.80;;;;;;;17.46;100.00;101575.06;5049001;28;20040;-69
2022/06/27 05:44:06;;;;;;;15.83;12.93;;;;;;;17.56;100.00;101583.19;5047517;28;20111;-69
2022/06/27 05:46:44;;;;;;;14.85;13.20;;;;;;;17.59;100.00;101585.34;5063190;28;20031;-70
2022/06/27 05:49:11;;;;;;;14.82;12.45;;;;;;;17.61;100.00;101599.69;5048680;28;20116;-69
2022/06/27 05:51:41;;;;;;;13.63;11.85;;;;;;;17.67;100.00;101596.81;5082625;28;20383;-69
2022/06/27 05:54:08;;;;;;;12.88;11.57;;;;;;;17.72;100.00;101593.91;5064665;28;20083;-68
2022/06/27 05:56:33;;;;;;;18.67;14.10;;;;;;;17.78;100.00;101601.00;5082804;28;20143;-68
2022/06/27 05:59:06;;;;;;;13.88;12.05;;;;;;;17.78;100.00;101614.84;5044968;28;20155;-69
2022/06/27 06:01:44;;;;;;;16.15;13.60;;;;;;;17.76;100.00;101614.34;5044298;28;20394;-69
2022/06/27 06:04:10;;;;;;;14.93;12.02;;;;;;;17.82;100.00;101626.94;5066678;28;20032;-69
2022/06/27 06:06:36;;;;;;;15.68;12.63;;;;;;;17.91;100.00;101627.91;5084495;28;20020;-68
2022/06/27 06:09:03;;;;;;;14.02;12.52;;;;;;;18.07;100.00;101641.41;5063773;28;20526;-68
2022/06/27 06:11:30;;;;;;;15.32;13.73;;;;;;;18.16;100.00;101631.19;5064803;28;20124;-71
2022/06/27 06:14:06;;;;;;;12.43;11.10;;;;;;;18.26;100.00;101636.50;5047098;28;20042;-69
2022/06/27 06:16:52;;;;;;;13.90;12.15;;;;;;;18.34;100.00;101638.50;5060348;28;20069;-69
2022/06/27 06:19:18;;;;;;;14.63;12.80;;;;;;;18.45;100.00;101621.63;5082220;28;20074;-68
2022/06/27 06:21:45;;;;;;;13.73;12.30;;;;;;;18.57;100.00;101623.81;5046642;28;20052;-69
2022/06/27 06:24:10;;;;;;;15.45;12.23;;;;;;;18.64;100.00;101643.59;5064731;28;20350;-69
2022/06/27 06:26:36;;;;;;;16.08;13.02;;;;;;;18.79;100.00;101648.78;5082638;28;20016;-68
2022/06/27 06:29:18;;;;;;;13.68;12.10;;;;;;;18.88;100.00;101646.06;5079501;28;20478;-70
2022/06/27 06:31:54;;;;;;;14.48;12.63;;;;;;;18.94;100.00;101644.78;5061116;28;20024;-69
2022/06/27 06:34:19;;;;;;;12.95;11.65;;;;;;;19.08;100.00;101650.25;5063965;28;20032;-69
2022/06/27 06:36:46;;;;;;;14.05;12.57;;;;;;;19.17;100.00;101644.69;5062899;28;20032;-69
2022/06/27 06:39:12;;;;;;;17.90;13.55;;;;;;;19.26;100.00;101653.91;5045576;28;20493;-69
2022/06/27 06:41:39;;;;;;;13.63;12.25;;;;;;;19.34;100.00;101655.09;5082168;28;20064;-68
2022/06/27 06:44:06;;;;;;;12.25;11.07;;;;;;;19.39;100.00;101669.66;5042767;28;21117;-68
2022/06/27 06:46:40;;;;;;;12.90;11.60;;;;;;;19.42;100.00;101671.78;5078283;28;20423;-69
2022/06/27 06:49:06;;;;;;;14.43;12.10;;;;;;;19.45;100.00;101668.38;5082762;28;20051;-69
2022/06/27 06:51:36;;;;;;;12.95;11.60;;;;;;;19.44;100.00;101668.69;5066004;28;20028;-69
2022/06/27 06:54:04;;;;;;;15.80;12.43;;;;;;;19.39;100.00;101657.72;5082510;28;20598;-69
2022/06/27 06:56:30;;;;;;;13.65;12.07;;;;;;;19.33;100.00;101643.13;5085904;28;20040;-68
2022/06/27 06:59:06;;;;;;;13.15;11.70;;;;;;;19.01;100.00;101636.00;5082905;28;20493;-69
2022/06/27 07:01:39;;;;;;;15.85;12.68;;;;;;;19.16;100.00;101620.84;5083782;28;20052;-69
2022/06/27 07:04:04;;;;;;;12.65;11.35;;;;;;;19.27;100.00;101611.88;5048431;28;20036;-69
2022/06/27 07:06:30;;;;;;;13.32;12.02;;;;;;;19.36;100.00;101617.47;5067004;28;20402;-69
2022/06/27 07:09:00;;;;;;;18.95;12.57;;;;;;;19.45;100.00;101621.09;5049873;28;20020;-68
2022/06/27 07:11:31;;;;;;;15.23;12.93;;;;;;;19.47;100.00;101613.22;5086059;28;20406;-68
2022/06/27 07:14:06;;;;;;;13.38;11.80;;;;;;;19.52;100.00;101611.47;5083352;28;20047;-69
2022/06/27 07:16:40;;;;;;;15.27;11.85;;;;;;;19.57;100.00;101597.38;5082674;28;20123;-67
2022/06/27 07:19:06;;;;;;;15.35;12.15;;;;;;;19.52;100.00;101586.44;5064061;28;20133;-69
2022/06/27 07:21:34;;;;;;;13.77;11.10;;;;;;;19.71;100.00;101613.91;5086971;28;20032;-68
2022/06/27 07:24:01;;;;;;;12.65;11.02;;;;;;;20.09;100.00;101616.91;5085111;28;20446;-68
2022/06/27 07:26:28;;;;;;;15.00;12.40;;;;;;;20.21;100.00;101610.69;5086956;28;20020;-69
2022/06/27 07:29:06;;;;;;;12.55;11.15;;;;;;;20.33;100.00;101612.78;5065609;28;20469;-69
2022/06/27 07:31:35;;;;;;;15.15;12.60;;;;;;;20.26;100.00;101604.13;5066552;28;20122;-68
2022/06/27 07:34:01;;;;;;;15.18;11.73;;;;;;;20.15;100.00;101623.13;5065746;28;20031;-69
2022/06/27 07:36:28;;;;;;;16.15;12.80;;;;;;;20.15;100.00;101626.75;5051711;28;20737;-69
2022/06/27 07:38:58;;;;;;;14.27;12.73;;;;;;;20.04;100.00;101608.75;5064624;28;20078;-68
2022/06/27 07:41:24;;;;;;;17.13;11.48;;;;;;;20.14;100.00;101627.06;5085141;28;20020;-68
2022/06/27 07:44:12;;;;;;;13.00;11.60;;;;;;;20.23;100.00;101635.41;5064538;28;20398;-68
2022/06/27 07:46:38;;;;;;;14.95;11.65;;;;;;;20.48;100.00;101647.66;5080465;28;20059;-68
2022/06/27 07:49:03;;;;;;;13.75;11.40;;;;;;;20.58;100.00;101650.13;5048796;28;20107;-68
2022/06/27 07:51:29;;;;;;;14.82;11.20;;;;;;;20.69;100.00;101650.59;5084947;28;20398;-69
2022/06/27 07:54:01;;;;;;;13.52;12.13;;;;;;;20.70;100.00;101649.47;5084988;28;20044;-69
2022/06/27 07:56:27;;;;;;;13.23;11.82;;;;;;;20.84;100.00;101652.88;5064667;28;20052;-69
2022/06/27 07:58:53;;;;;;;14.02;12.63;;;;;;;20.93;100.00;101652.81;5029261;28;20093;-67
2022/06/27 08:01:20;;;;;;;12.38;10.98;;;;;;;20.92;100.00;101649.22;5044486;28;20020;-69
2022/06/27 08:03:59;;;;;;;;;;;;;;;;;;;;;
2022/06/27 08:06:28;;;;;;;14.60;12.88;;;;;;;20.86;100.00;101655.31;5064860;28;20036;-69
2022/06/27 08:09:00;;;;;;;15.23;12.57;;;;;;;20.93;100.00;101656.44;5063705;28;20021;-68
2022/06/27 08:11:32;;;;;;;14.75;12.05;;;;;;;20.98;100.00;101661.00;5065697;28;20032;-70
2022/06/27 08:14:06;;;;;;;14.82;13.30;;;;;;;20.78;100.00;101659.75;5062395;28;20036;-68
2022/06/27 08:16:38;;;;;;;14.57;12.93;;;;;;;20.88;100.00;101664.97;5063513;28;20154;-69
2022/06/27 08:19:04;;;;;;;16.23;12.85;;;;;;;20.85;100.00;101645.31;5045594;28;20035;-68
2022/06/27 08:21:31;;;;;;;15.18;13.35;;;;;;;21.05;100.00;101644.59;5065516;28;20024;-68
2022/06/27 08:24:03;;;;;;;15.63;12.88;;;;;;;21.08;100.00;101634.72;5063710;28;20028;-68
2022/06/27 08:26:30;;;;;;;16.55;13.13;;;;;;;21.05;100.00;101627.88;5065270;28;20039;-68
2022/06/27 08:29:05;;;;;;;14.52;13.02;;;;;;;20.87;100.00;101635.47;5046292;28;20043;-68
2022/06/27 08:31:34;;;;;;;13.98;12.45;;;;;;;21.27;100.00;101632.34;5061003;28;20024;-68
2022/06/27 08:34:03;;;;;;;11.57;10.43;;;;;;;21.70;100.00;101632.47;5044974;28;20180;-67
2022/06/27 08:36:33;;;;;;;14.63;11.13;;;;;;;21.90;100.00;101640.00;5064848;28;20467;-67
2022/06/27 08:39:01;;;;;;;13.25;10.25;;;;;;;21.80;100.00;101634.84;5062739;28;20097;-67
2022/06/27 08:41:30;;;;;;;11.80;9.63;;;;;;;21.92;100.00;101648.84;5064853;28;20112;-68
2022/06/27 08:44:06;;;;;;;12.35;9.45;;;;;;;22.31;100.00;101671.88;5046593;28;20040;-68
2022/06/27 08:46:45;;;;;;;11.48;8.32;;;;;;;21.92;100.00;101690.72;5060300;28;20405;-68
2022/06/27 08:49:14;;;;;;;13.25;8.43;;;;;;;22.26;100.00;101683.25;5062985;28;20106;-68
2022/06/27 08:51:41;;;;;;;10.93;8.15;;;;;;;22.33;100.00;101682.72;5065488;28;20029;-67
2022/06/27 08:54:11;;;;;;;12.98;8.20;;;;;;;22.25;100.00;101684.41;5062535;28;20041;-67
2022/06/27 08:56:37;;;;;;;9.07;8.02;;;;;;;22.37;100.00;101686.47;5063297;28;20111;-68
2022/06/27 08:59:06;;;;;;;11.20;8.15;;;;;;;21.79;100.00;101686.22;5060833;28;20205;-67
2022/06/27 09:01:39;;;;;;;11.35;7.85;;;;;;;21.98;100.00;101672.63;5059534;28;20045;-67
2022/06/27 09:04:06;;;;;;;7.35;6.50;;;;;;;22.21;100.00;101684.25;5061860;28;20023;-68
2022/06/27 09:06:37;;;;;;;9.73;7.50;;;;;;;22.32;100.00;101684.72;5063554;28;20032;-68
2022/06/27 09:09:09;;;;;;;10.25;8.32;;;;;;;22.26;100.00;101686.03;5061271;28;20032;-67
2022/06/27 09:11:38;;;;;;;8.85;6.80;;;;;;;22.23;100.00;101686.72;5061919;28;20039;-68
2022/06/27 09:14:35;;;;;;;9.55;6.55;;;;;;;22.13;100.00;101687.94;5060692;28;20059;-67
2022/06/27 09:17:15;;;;;;;10.57;6.47;;;;;;;22.19;100.00;101685.78;5055901;28;20033;-68
2022/06/27 09:20:08;;;;;;;8.75;7.20;;;;;;;22.05;100.00;101676.84;5062106;28;20020;-67
2022/06/27 09:22:33;;;;;;;8.52;6.75;;;;;;;22.01;100.00;101685.09;5062636;28;20033;-68
2022/06/27 09:25:06;;;;;;;9.45;5.72;;;;;;;22.28;100.00;101682.91;5062945;28;20028;-68
2022/06/27 09:27:44;;;;;;;9.57;5.13;;;;;;;22.30;100.00;101672.22;5062132;28;20153;-68
2022/06/27 09:30:22;;;;;;;10.98;7.40;;;;;;;21.99;100.00;101673.47;5061262;28;20383;-68
2022/06/27 09:32:54;;;;;;;10.02;6.80;;;;;;;22.17;100.00;101677.75;5061258;28;20103;-67
2022/06/27 09:35:28;;;;;;;11.35;7.95;;;;;;;22.34;100.00;101675.97;5060489;28;20102;-68
2022/06/27 09:37:56;;;;;;;9.98;8.75;;;;;;;22.38;100.00;101680.56;5061069;28;20028;-68
2022/06/27 09:40:24;;;;;;;10.52;9.23;;;;;;;22.24;100.00;101681.97;5061821;28;20626;-68
2022/06/27 09:42:53;;;;;;;11.10;8.88;;;;;;;21.89;100.00;101685.84;5060846;28;20028;-69
2022/06/27 09:45:21;;;;;;;11.48;7.93;;;;;;;22.02;100.00;101693.13;5057601;28;20073;-68
2022/06/27 09:47:47;;;;;;;11.07;8.45;;;;;;;22.18;100.00;101696.09;5060590;28;20073;-69
2022/06/27 09:50:14;;;;;;;14.30;8.73;;;;;;;22.32;100.00;101704.25;5061062;28;20411;-68
2022/06/27 09:52:40;;;;;;;11.68;7.80;;;;;;;22.52;100.00;101701.78;5063916;28;20028;-68
2022/06/27 09:55:09;;;;;;;9.82;7.80;;;;;;;22.64;100.00;101701.00;5060510;28;20464;-69
2022/06/27 09:57:36;;;;;;;10.20;7.72;;;;;;;22.59;100.00;101699.25;5045582;28;20127;-68
2022/06/27 10:00:21;;;;;;;8.85;6.78;;;;;;;22.79;100.00;101693.94;5045541;28;20512;-68
2022/06/27 10:02:49;;;;;;;8.50;6.38;;;;;;;23.13;100.00;101696.38;5060199;28;20080;-69
2022/06/27 10:05:16;;;;;;;8.93;6.80;;;;;;;23.04;100.00;101698.44;5057838;28;20025;-69
2022/06/27 10:07:59;;;;;;;10.00;8.05;;;;;;;23.01;100.00;101690.75;5062208;28;20573;-68
2022/06/27 10:10:27;;;;;;;8.55;7.32;;;;;;;23.31;100.00;101682.19;5044996;28;20771;-69
2022/06/27 10:13:01;;;;;;;8.07;6.35;;;;;;;23.34;100.00;101681.47;5062103;28;20025;-68
2022/06/27 10:15:38;;;;;;;9.68;7.20;;;;;;;22.82;100.00;101682.88;5058460;28;20028;-69
2022/06/27 10:18:07;;;;;;;10.55;6.65;;;;;;;22.92;100.00;101681.63;5060425;28;20024;-68
2022/06/27 10:20:36;;;;;;;9.40;5.50;;;;;;;22.56;100.00;101681.19;5044063;28;20515;-69
2022/06/27 10:23:11;;;;;;;6.00;4.95;;;;;;;22.29;100.00;101682.59;5060206;28;20170;-69
2022/06/27 10:25:44;;;;;;;10.38;5.78;;;;;;;22.49;100.00;101688.50;5061011;28;20032;-68
2022/06/27 10:28:10;;;;;;;10.43;5.90;;;;;;;22.57;100.00;101687.59;5059688;28;20021;-68
2022/06/27 10:31:02;;;;;;;7.95;5.38;;;;;;;22.36;100.00;101694.03;5058152;28;20569;-68
2022/06/27 10:33:27;;;;;;;8.35;4.72;;;;;;;22.58;100.00;101692.03;5054895;28;20045;-69
2022/06/27 10:35:59;;;;;;;9.55;6.22;;;;;;;22.40;100.00;101691.38;5061820;28;20382;-68
2022/06/27 10:38:33;;;;;;;7.03;5.50;;;;;;;22.36;100.00;101685.63;5056718;28;20035;-68
2022/06/27 10:41:01;;;;;;;9.93;6.93;;;;;;;22.42;100.00;101679.88;5061746;28;20038;-69
2022/06/27 10:43:36;;;;;;;10.20;6.13;;;;;;;22.24;100.00;101684.75;5059383;28;20130;-68
2022/06/27 10:46:11;;;;;;;12.88;5.80;;;;;;;22.25;100.00;101680.78;5059490;28;20546;-68
2022/06/27 10:48:57;;;;;;;7.85;4.50;;;;;;;22.16;100.00;101675.28;5058471;28;20035;-67
2022/06/27 10:51:31;;;;;;;5.63;4.00;;;;;;;22.28;100.00;101675.31;5059945;28;20024;-69
2022/06/27 10:54:05;;;;;;;5.15;3.60;;;;;;;22.37;100.00;101681.69;5060818;28;20035;-67
2022/06/27 10:56:45;;;;;;;8.88;3.95;;;;;;;22.61;100.00;101688.53;5058895;28;20056;-67
2022/06/27 10:59:13;;;;;;;6.68;4.05;;;;;;;22.61;100.00;101691.31;5056823;28;20036;-68
2022/06/27 11:01:41;;;;;;;7.05;3.65;;;;;;;22.72;100.00;101686.13;5060577;28;20132;-68
2022/06/27 11:04:06;;;;;;;7.45;4.35;;;;;;;22.51;100.00;101694.56;5062722;28;20028;-69
2022/06/27 11:06:32;;;;;;;5.88;3.45;;;;;;;22.83;100.00;101692.13;5061226;28;20036;-68
2022/06/27 11:08:58;;;;;;;6.47;3.53;;;;;;;23.09;100.00;101678.66;5062865;28;20089;-68
2022/06/27 11:11:30;;;;;;;10.07;5.53;;;;;;;23.28;100.00;101683.72;5060396;28;20486;-68
2022/06/27 11:14:03;;;;;;;10.05;5.38;;;;;;;22.95;100.00;101689.31;5043738;28;20076;-68
2022/06/27 11:16:37;;;;;;;9.68;4.47;;;;;;;23.37;100.00;101675.19;5057505;28;20115;-68
2022/06/27 11:20:04;;;;;;;8.27;3.53;;;;;;;23.34;100.00;101686.28;5060659;28;20700;-67
2022/06/27 11:21:51;;;;;;;6.30;3.13;;;;;;;23.22;100.00;101687.06;5060143;28;20032;-68